Time;durP1;ratioP1;P1;durP2;ratioP2;P2;SDS_P1;SDS_P2;PMS_P1;PMS_P2;Temp;Humidity;BMP_temperature;BMP_pressure;BME280_temperature;BME280_humidity;BME280_pressure;Samples;Min_cycle;Max_cycle;Signal;HPM_P1;HPM_P2
2023/01/23 00:01:31;;;;;;;10.27;6.53;;;-2.60;99.90;;;;;;5113012;28;20040;-69
2023/01/23 00:04:01;;;;;;;10.68;6.55;;;-2.50;99.90;;;;;;5114513;28;20063;-70
2023/01/23 00:06:29;;;;;;;9.13;5.93;;;-2.50;99.90;;;;;;5108159;28;20159;-70
2023/01/23 00:08:56;;;;;;;9.43;7.13;;;-2.60;99.90;;;;;;5112899;28;20090;-70
2023/01/23 00:11:28;;;;;;;10.30;7.07;;;-2.50;99.90;;;;;;5112913;28;20523;-69
2023/01/23 00:13:57;;;;;;;10.52;6.18;;;-2.50;99.90;;;;;;5109088;28;20051;-70
2023/01/23 00:16:26;;;;;;;10.07;6.93;;;-2.50;99.90;;;;;;5100402;28;20410;-70
2023/01/23 00:18:54;;;;;;;15.02;7.97;;;-2.50;99.90;;;;;;5113013;28;20055;-71
2023/01/23 00:21:24;;;;;;;13.18;7.50;;;-2.50;99.90;;;;;;5112657;27;20043;-70
2023/01/23 00:23:56;;;;;;;11.23;7.40;;;-2.50;99.90;;;;;;5111411;28;20058;-71
2023/01/23 00:26:31;;;;;;;12.93;8.15;;;-2.50;99.90;;;;;;5112993;28;20142;-71
2023/01/23 00:28:58;;;;;;;11.90;7.65;;;-2.50;99.90;;;;;;5112932;28;20047;-70
2023/01/23 00:31:28;;;;;;;12.57;8.23;;;-2.50;99.90;;;;;;5113893;28;20047;-68
2023/01/23 00:34:00;;;;;;;12.98;8.23;;;-2.50;99.90;;;;;;5109185;28;20119;-69
2023/01/23 00:36:30;;;;;;;13.98;8.15;;;-2.40;99.90;;;;;;5112987;28;20067;-70
2023/01/23 00:38:58;;;;;;;15.73;7.45;;;-2.40;99.90;;;;;;5103633;28;20047;-69
2023/01/23 00:41:27;;;;;;;12.07;8.05;;;-2.40;99.90;;;;;;5114117;28;20051;-69
2023/01/23 00:43:54;;;;;;;13.57;7.85;;;-2.40;99.90;;;;;;5097326;28;20097;-70
2023/01/23 00:46:22;;;;;;;13.25;7.53;;;-2.50;99.90;;;;;;5112170;28;20058;-70
2023/01/23 00:48:50;;;;;;;15.63;8.05;;;-2.40;99.90;;;;;;5110961;28;20076;-69
2023/01/23 00:51:21;;;;;;;13.63;7.57;;;-2.40;99.90;;;;;;5111318;27;20196;-70
2023/01/23 00:53:48;;;;;;;9.35;7.07;;;-2.40;99.90;;;;;;5112739;28;20558;-70
2023/01/23 00:56:19;;;;;;;10.70;7.00;;;-2.40;99.90;;;;;;5111073;28;20046;-69
2023/01/23 00:58:49;;;;;;;11.38;7.50;;;-2.40;99.90;;;;;;5108791;28;20047;-69
2023/01/23 01:01:17;;;;;;;10.85;7.32;;;-2.40;99.90;;;;;;5112076;28;20039;-69
2023/01/23 01:03:45;;;;;;;15.20;8.27;;;-2.40;99.90;;;;;;5111947;28;20055;-69
2023/01/23 01:06:14;;;;;;;12.70;7.30;;;-2.40;99.90;;;;;;5111273;28;20048;-68
2023/01/23 01:08:42;;;;;;;10.60;7.88;;;-2.40;99.90;;;;;;5112661;28;20051;-68
2023/01/23 01:11:09;;;;;;;12.65;7.85;;;-2.40;99.90;;;;;;5110596;28;20303;-69
2023/01/23 01:13:37;;;;;;;12.65;8.00;;;-2.40;99.90;;;;;;5113037;28;20075;-69
2023/01/23 01:16:07;;;;;;;12.45;8.32;;;-2.40;99.90;;;;;;5105743;28;20089;-69
2023/01/23 01:18:36;;;;;;;13.48;8.68;;;-2.50;99.90;;;;;;5105366;28;20058;-69
2023/01/23 01:21:07;;;;;;;13.38;8.15;;;-2.50;99.90;;;;;;5101751;28;20052;-71
2023/01/23 01:23:36;;;;;;;;;;;-2.50;99.90;;;;;;5111274;28;20420;-69
2023/01/23 01:26:05;;;;;;;14.00;8.38;;;-2.50;99.90;;;;;;5110579;28;19923;-69
2023/01/23 01:28:34;;;;;;;13.77;7.85;;;-2.50;99.90;;;;;;5111082;28;20051;-69
2023/01/23 01:31:08;;;;;;;14.50;9.05;;;-2.50;99.90;;;;;;5093704;28;20048;-69
2023/01/23 01:33:37;;;;;;;14.20;8.35;;;-2.50;99.90;;;;;;5111120;28;20120;-69
2023/01/23 01:36:09;;;;;;;12.02;8.25;;;-2.40;99.90;;;;;;5092554;28;20056;-69
2023/01/23 01:38:37;;;;;;;15.00;9.40;;;-2.40;99.90;;;;;;5112719;27;20052;-69
2023/01/23 01:41:07;;;;;;;14.65;9.20;;;-2.40;99.90;;;;;;5108565;28;20051;-70
2023/01/23 01:43:36;;;;;;;17.58;11.20;;;-2.30;99.90;;;;;;5115687;27;20402;-69
2023/01/23 01:46:21;;;;;;;15.75;9.13;;;-2.30;99.90;;;;;;5101796;28;20147;-69
2023/01/23 01:49:00;;;;;;;16.63;10.02;;;-2.30;99.90;;;;;;5099215;28;20580;-70
2023/01/23 01:51:33;;;;;;;14.77;9.63;;;-2.30;99.90;;;;;;5103737;28;20042;-70
2023/01/23 01:54:06;;;;;;;;;;;-2.30;99.90;;;;;;5098222;28;20395;-70
2023/01/23 01:56:40;;;;;;;14.93;9.02;;;-2.30;99.90;;;;;;5109693;28;20347;-70
2023/01/23 01:59:08;;;;;;;18.67;9.93;;;-2.30;99.90;;;;;;5098671;28;20515;-70
2023/01/23 02:01:38;;;;;;;16.20;10.30;;;-2.30;99.90;;;;;;5111385;28;20162;-70
2023/01/23 02:04:08;;;;;;;17.60;9.95;;;-2.30;99.90;;;;;;5110863;28;20555;-70
2023/01/23 02:06:35;;;;;;;16.50;10.48;;;-2.30;99.90;;;;;;5108903;28;20079;-70
2023/01/23 02:09:10;;;;;;;18.02;11.00;;;-2.30;99.90;;;;;;5108965;28;20499;-70
2023/01/23 02:11:37;;;;;;;20.58;11.68;;;-2.20;99.90;;;;;;5107145;28;20500;-71
2023/01/23 02:14:05;;;;;;;17.35;11.35;;;-2.20;99.90;;;;;;5105247;28;20048;-71
2023/01/23 02:16:42;;;;;;;19.80;10.75;;;-2.20;99.90;;;;;;5107356;28;20078;-70
2023/01/23 02:19:24;;;;;;;19.58;10.93;;;-2.20;99.90;;;;;;5110194;28;20158;-69
2023/01/23 02:21:59;;;;;;;20.67;11.25;;;-2.20;99.90;;;;;;5110141;28;20147;-69
2023/01/23 02:24:32;;;;;;;21.27;11.27;;;-2.30;99.90;;;;;;5109709;28;20405;-69
2023/01/23 02:27:03;;;;;;;19.85;10.95;;;-2.20;99.90;;;;;;5109084;28;20059;-70
2023/01/23 02:29:42;;;;;;;21.45;11.65;;;-2.20;99.90;;;;;;5109049;28;20136;-69
2023/01/23 02:32:09;;;;;;;19.00;10.90;;;-2.20;99.90;;;;;;5109489;28;20559;-69
2023/01/23 02:34:37;;;;;;;21.75;11.63;;;-2.20;99.90;;;;;;5096191;28;20435;-70
2023/01/23 02:37:07;;;;;;;22.60;12.30;;;-2.20;99.90;;;;;;5107197;28;20063;-69
2023/01/23 02:39:35;;;;;;;21.45;11.77;;;-2.20;99.90;;;;;;5109506;28;20108;-71
2023/01/23 02:42:06;;;;;;;20.90;11.70;;;-2.20;99.90;;;;;;5090645;28;20503;-70
2023/01/23 02:44:45;;;;;;;19.52;10.88;;;-2.20;99.90;;;;;;5107823;28;20048;-70
2023/01/23 02:47:15;;;;;;;21.20;9.77;;;-2.30;99.90;;;;;;5088233;28;20051;-70
2023/01/23 02:49:42;;;;;;;17.45;9.32;;;-2.30;99.90;;;;;;5092195;28;20056;-70
2023/01/23 02:52:11;;;;;;;15.88;9.38;;;-2.30;99.90;;;;;;5099507;28;20067;-70
2023/01/23 02:54:39;;;;;;;17.60;9.93;;;-2.30;99.90;;;;;;5106340;28;20575;-70
2023/01/23 02:57:08;;;;;;;16.73;9.27;;;-2.30;99.90;;;;;;5111555;28;20063;-71
2023/01/23 03:02:26;;;;;;;18.58;9.95;;;-2.30;99.90;;;;;;5077305;28;20048;-70
2023/01/23 03:04:54;;;;;;;21.73;10.57;;;-2.30;99.90;;;;;;5109478;28;20048;-69
2023/01/23 03:07:21;;;;;;;20.73;10.60;;;-2.30;99.90;;;;;;5108562;28;20055;-69
2023/01/23 03:09:49;;;;;;;20.02;9.63;;;-2.30;99.90;;;;;;5109041;28;20420;-69
2023/01/23 03:12:18;;;;;;;21.73;10.75;;;-2.30;99.90;;;;;;5109239;28;20067;-69
2023/01/23 03:14:47;;;;;;;21.15;10.82;;;-2.30;99.90;;;;;;5107450;28;20274;-69
2023/01/23 03:17:14;;;;;;;24.73;10.25;;;-2.30;99.90;;;;;;5104952;28;20130;-70
2023/01/23 03:19:42;;;;;;;19.30;10.75;;;-2.30;99.90;;;;;;5098149;28;20457;-70
2023/01/23 03:22:09;;;;;;;18.75;10.05;;;-2.30;99.90;;;;;;5112947;28;20113;-70
2023/01/23 03:24:39;;;;;;;19.55;9.95;;;-2.30;99.90;;;;;;5110297;28;20063;-70
2023/01/23 03:27:07;;;;;;;19.83;9.90;;;-2.30;99.90;;;;;;5106000;28;20056;-70
2023/01/23 03:32:31;;;;;;;20.50;11.15;;;-2.30;99.90;;;;;;5103753;28;20052;-70
2023/01/23 03:34:59;;;;;;;20.70;10.60;;;-2.30;99.90;;;;;;5112058;28;20062;-71
2023/01/23 03:37:27;;;;;;;20.52;10.25;;;-2.30;99.90;;;;;;5113511;28;20538;-69
2023/01/23 03:42:41;;;;;;;21.40;11.75;;;-2.20;99.90;;;;;;5107691;28;20070;-70
2023/01/23 03:45:11;;;;;;;22.83;11.27;;;-2.20;99.90;;;;;;5098962;28;20044;-70
2023/01/23 03:47:41;;;;;;;20.55;10.77;;;-2.20;99.90;;;;;;5112360;28;20063;-71
2023/01/23 03:50:10;;;;;;;23.85;10.90;;;-2.20;99.90;;;;;;5095373;28;20139;-70
2023/01/23 03:52:39;;;;;;;21.02;10.70;;;-2.20;99.90;;;;;;5097223;28;20052;-70
2023/01/23 03:55:08;;;;;;;22.65;11.65;;;-2.20;99.90;;;;;;5106944;28;20091;-70
2023/01/23 03:57:39;;;;;;;20.65;11.15;;;-2.20;99.90;;;;;;5094010;28;20520;-70
2023/01/23 04:00:16;;;;;;;24.30;11.40;;;-2.20;99.90;;;;;;5108362;28;20050;-70
2023/01/23 04:02:54;;;;;;;22.77;12.05;;;-2.20;99.90;;;;;;5108974;27;20139;-70
2023/01/23 04:05:21;;;;;;;22.98;11.65;;;-2.10;99.90;;;;;;5110563;28;20117;-71
2023/01/23 04:07:49;;;;;;;23.00;11.55;;;-2.20;99.90;;;;;;5095418;28;20047;-70
2023/01/23 04:10:20;;;;;;;24.75;11.23;;;-2.20;99.90;;;;;;5110152;28;20138;-70
2023/01/23 04:12:53;;;;;;;22.77;11.57;;;-2.20;99.90;;;;;;5098240;28;20120;-70
2023/01/23 04:15:22;;;;;;;28.42;12.25;;;-2.20;99.90;;;;;;5117120;28;20051;-71
2023/01/23 04:17:51;;;;;;;25.42;12.13;;;-2.20;99.90;;;;;;5096020;28;20130;-72
2023/01/23 04:20:18;;;;;;;23.02;10.90;;;-2.20;99.90;;;;;;5111281;28;20075;-70
2023/01/23 04:22:46;;;;;;;26.55;11.55;;;-2.20;99.90;;;;;;5087397;28;20458;-70
2023/01/23 04:25:15;;;;;;;20.55;10.55;;;-2.20;99.90;;;;;;5089872;28;20036;-71
2023/01/23 04:27:43;;;;;;;29.15;12.43;;;-2.30;99.90;;;;;;5102256;28;20503;-72
2023/01/23 04:30:13;;;;;;;26.63;10.20;;;-2.30;99.90;;;;;;5090375;28;20122;-70
2023/01/23 04:32:43;;;;;;;26.40;10.90;;;-2.40;99.90;;;;;;5107840;28;20139;-71
2023/01/23 04:35:13;;;;;;;23.80;11.50;;;-2.40;99.90;;;;;;5093850;28;20047;-71
2023/01/23 04:37:42;;;;;;;24.30;11.40;;;-2.40;99.90;;;;;;5103080;28;20465;-70
2023/01/23 04:40:12;;;;;;;28.52;12.23;;;-2.40;99.90;;;;;;5098272;28;20048;-70
2023/01/23 04:42:50;;;;;;;30.92;12.45;;;-2.40;99.90;;;;;;5095461;28;20046;-72
2023/01/23 04:45:29;;;;;;;30.55;12.00;;;-2.40;99.90;;;;;;5101398;28;20044;-71
2023/01/23 04:48:27;;;;;;;25.38;10.98;;;-2.40;99.90;;;;;;5052933;28;20092;-72
2023/01/23 04:50:55;;;;;;;27.42;13.13;;;-2.50;99.90;;;;;;5094003;28;20429;-72
2023/01/23 04:53:22;;;;;;;31.95;13.00;;;-2.50;99.90;;;;;;5094758;28;20428;-77
2023/01/23 04:55:57;;;;;;;25.02;11.57;;;-2.50;99.90;;;;;;5093443;28;20400;-71
2023/01/23 04:58:27;;;;;;;26.95;12.00;;;-2.50;99.90;;;;;;5103577;28;20097;-78
2023/01/23 05:01:03;;;;;;;33.83;12.05;;;-2.50;99.90;;;;;;5085046;28;20105;-71
2023/01/23 05:03:34;;;;;;;29.90;12.02;;;-2.40;99.90;;;;;;5094554;28;20072;-72
2023/01/23 05:06:02;;;;;;;32.80;12.57;;;-2.40;99.90;;;;;;5113852;28;20454;-70
2023/01/23 05:08:30;;;;;;;28.83;11.70;;;-2.40;99.90;;;;;;5054797;28;1293261;-73
2023/01/23 05:11:23;;;;;;;;;;;-2.40;99.90;;;;;;5095130;28;20048;-69
2023/01/23 05:13:50;;;;;;;27.50;11.25;;;-2.50;99.90;;;;;;5101055;28;19924;-73
2023/01/23 05:16:19;;;;;;;28.00;11.52;;;-2.50;99.90;;;;;;5109486;28;20043;-73
2023/01/23 05:19:23;;;;;;;27.40;12.55;;;-2.50;99.90;;;;;;5033771;28;20044;-73
2023/01/23 05:21:51;;;;;;;26.25;12.52;;;-2.60;99.90;;;;;;5094190;28;20048;-70
2023/01/23 05:24:21;;;;;;;34.55;14.13;;;-2.60;99.90;;;;;;5109472;28;20066;-75
2023/01/23 05:26:49;;;;;;;29.13;12.77;;;-2.50;99.90;;;;;;5110150;28;20444;-77
2023/01/23 05:29:18;;;;;;;25.27;11.60;;;-2.50;99.90;;;;;;5092503;28;20048;-77
2023/01/23 05:32:11;;;;;;;34.17;13.40;;;-2.40;99.90;;;;;;5089569;28;20530;-77
2023/01/23 05:34:40;;;;;;;35.58;14.68;;;-2.40;99.90;;;;;;5090608;28;20146;-75
2023/01/23 05:37:17;;;;;;;39.47;13.52;;;-2.40;99.90;;;;;;5095488;28;20031;-78
2023/01/23 05:39:49;;;;;;;34.20;13.23;;;-2.50;99.90;;;;;;5110035;28;20056;-74
2023/01/23 05:42:18;;;;;;;35.28;13.38;;;-2.50;99.90;;;;;;5108805;28;20079;-77
2023/01/23 05:45:03;;;;;;;34.05;13.55;;;-2.50;99.90;;;;;;5108573;28;20586;-77
2023/01/23 05:47:39;;;;;;;33.67;13.60;;;-2.50;99.90;;;;;;5103621;28;20511;-77
2023/01/23 05:50:16;;;;;;;33.75;13.32;;;-2.50;99.90;;;;;;5089118;28;20575;-75
2023/01/23 05:52:45;;;;;;;34.60;14.80;;;-2.50;99.90;;;;;;5096411;28;20146;-77
2023/01/23 05:55:13;;;;;;;31.63;13.95;;;-2.40;99.90;;;;;;5109752;28;20054;-75
2023/01/23 05:57:41;;;;;;;33.75;14.75;;;-2.40;99.90;;;;;;5085087;27;20146;-76
2023/01/23 06:00:35;;;;;;;32.80;14.52;;;-2.50;99.90;;;;;;5077554;28;20433;-75
2023/01/23 06:03:34;;;;;;;32.47;14.13;;;-2.50;99.90;;;;;;5110356;28;20054;-74
2023/01/23 06:06:17;;;;;;;36.85;14.23;;;-2.50;99.90;;;;;;5091789;28;20059;-74
2023/01/23 06:08:44;;;;;;;35.53;14.48;;;-2.50;99.90;;;;;;5080458;28;20059;-72
2023/01/23 06:11:12;;;;;;;33.45;13.88;;;-2.40;99.90;;;;;;5108341;28;20044;-73
2023/01/23 06:13:39;;;;;;;32.13;14.32;;;-2.40;99.90;;;;;;5100939;28;20104;-72
2023/01/23 06:16:09;;;;;;;35.75;15.77;;;-2.50;99.90;;;;;;5106702;28;20052;-70
2023/01/23 06:18:36;;;;;;;33.10;14.38;;;-2.50;99.90;;;;;;5091592;28;20059;-71
2023/01/23 06:21:04;;;;;;;45.97;15.82;;;-2.40;99.90;;;;;;5110963;28;20197;-71
2023/01/23 06:23:34;;;;;;;41.42;15.63;;;-2.40;99.90;;;;;;5109118;28;20097;-71
2023/01/23 06:26:02;;;;;;;38.42;15.43;;;-2.40;99.90;;;;;;5110732;28;20556;-71
2023/01/23 06:28:31;;;;;;;38.63;13.10;;;-2.40;99.90;;;;;;5109782;28;20055;-71
2023/01/23 06:31:02;;;;;;;35.97;14.63;;;-2.40;99.90;;;;;;5109636;28;20055;-72
2023/01/23 06:33:50;;;;;;;39.63;15.93;;;-2.40;99.90;;;;;;5089352;28;20106;-72
2023/01/23 06:36:19;;;;;;;39.90;14.82;;;-2.40;99.90;;;;;;5089792;28;20143;-71
2023/01/23 06:38:48;;;;;;;36.80;14.75;;;-2.40;99.90;;;;;;5104630;28;20047;-71
2023/01/23 06:41:16;;;;;;;45.22;15.75;;;-2.40;99.90;;;;;;5093071;28;20134;-71
2023/01/23 06:43:52;;;;;;;37.20;15.65;;;-2.30;99.90;;;;;;5092627;28;20043;-71
2023/01/23 06:46:23;;;;;;;40.20;15.07;;;-2.30;99.90;;;;;;5097980;28;20054;-72
2023/01/23 06:48:53;;;;;;;38.00;16.17;;;-2.30;99.90;;;;;;5109542;28;20104;-72
2023/01/23 06:51:21;;;;;;;39.70;15.48;;;-2.30;99.90;;;;;;5109701;28;20051;-73
2023/01/23 06:53:51;;;;;;;39.97;16.42;;;-2.20;99.90;;;;;;5111014;28;20040;-72
2023/01/23 06:56:18;;;;;;;42.70;16.45;;;-2.30;99.90;;;;;;5110775;28;20039;-72
2023/01/23 06:58:47;;;;;;;38.92;14.57;;;-2.30;99.90;;;;;;5109523;28;20043;-71
2023/01/23 07:01:27;;;;;;;33.03;14.70;;;-2.30;99.90;;;;;;5092381;28;20479;-71
2023/01/23 07:04:21;;;;;;;37.03;15.73;;;-2.30;99.90;;;;;;5112222;28;20075;-71
2023/01/23 07:06:51;;;;;;;38.83;16.55;;;-2.30;99.90;;;;;;5089841;28;20135;-71
2023/01/23 07:09:22;;;;;;;37.90;15.13;;;-2.20;99.90;;;;;;5089002;28;20071;-71
2023/01/23 07:11:58;;;;;;;38.38;15.85;;;-2.20;99.90;;;;;;5095986;28;20060;-72
2023/01/23 07:14:27;;;;;;;37.13;15.13;;;-2.30;99.90;;;;;;5100174;28;20048;-73
2023/01/23 07:16:55;;;;;;;39.28;17.25;;;-2.30;99.90;;;;;;5086039;28;20085;-72
2023/01/23 07:19:23;;;;;;;39.75;15.30;;;-2.40;99.90;;;;;;5098835;28;20040;-71
2023/01/23 07:21:54;;;;;;;37.33;16.90;;;-2.40;99.90;;;;;;5096331;28;20097;-76
2023/01/23 07:24:23;;;;;;;34.95;15.82;;;-2.40;99.90;;;;;;5091913;28;20043;-73
2023/01/23 07:26:50;;;;;;;33.00;14.25;;;-2.30;99.90;;;;;;5100540;28;20031;-72
2023/01/23 07:29:21;;;;;;;37.75;14.85;;;-2.30;99.90;;;;;;5102655;28;20048;-72
2023/01/23 07:31:48;;;;;;;35.58;14.30;;;-2.20;99.90;;;;;;5101014;28;20052;-77
2023/01/23 07:34:16;;;;;;;32.35;14.32;;;-2.30;99.90;;;;;;5098367;28;20078;-75
2023/01/23 07:36:43;;;;;;;37.72;15.50;;;-2.30;99.90;;;;;;5103267;28;20116;-76
2023/01/23 07:39:11;;;;;;;40.60;16.08;;;-2.30;99.90;;;;;;5098837;28;20389;-75
2023/01/23 07:41:42;;;;;;;44.45;17.00;;;-2.30;99.90;;;;;;5095057;28;20425;-74
2023/01/23 07:44:17;;;;;;;38.83;16.63;;;-2.30;99.90;;;;;;5097192;28;20039;-76
2023/01/23 07:46:47;;;;;;;52.67;17.20;;;-2.40;99.90;;;;;;5102935;28;20129;-76
2023/01/23 07:49:15;;;;;;;42.00;17.05;;;-2.30;99.90;;;;;;5099501;28;20056;-78
2023/01/23 07:51:43;;;;;;;38.00;15.38;;;-2.30;99.90;;;;;;5092749;28;20047;-75
2023/01/23 07:54:10;;;;;;;41.22;16.13;;;-2.30;99.90;;;;;;5097106;28;20106;-75
2023/01/23 07:56:39;;;;;;;44.72;16.40;;;-2.30;99.90;;;;;;5098182;28;20172;-75
2023/01/23 07:59:06;;;;;;;40.20;16.58;;;-2.30;99.90;;;;;;5105508;28;20052;-75
2023/01/23 08:01:33;;;;;;;40.08;16.92;;;-2.20;99.90;;;;;;5048281;28;20083;-75
2023/01/23 08:04:01;;;;;;;37.72;15.48;;;-2.20;99.90;;;;;;5099496;28;20044;-74
2023/01/23 08:06:28;;;;;;;38.03;15.95;;;-2.10;99.90;;;;;;5093942;28;20048;-76
2023/01/23 08:08:56;;;;;;;39.50;16.17;;;-2.10;99.90;;;;;;5095346;28;20543;-75
2023/01/23 08:11:25;;;;;;;48.13;17.10;;;-2.10;99.90;;;;;;5105117;28;20058;-74
2023/01/23 08:13:54;;;;;;;43.90;16.52;;;-2.10;99.90;;;;;;5073756;28;20052;-76
2023/01/23 08:16:21;;;;;;;37.03;15.73;;;-2.00;99.90;;;;;;5106734;28;20086;-76
2023/01/23 08:18:49;;;;;;;34.58;16.70;;;-2.00;99.90;;;;;;5109049;28;20050;-76
2023/01/23 08:21:16;;;;;;;41.65;17.23;;;-2.00;99.90;;;;;;5110262;28;20051;-76
2023/01/23 08:23:45;;;;;;;46.45;19.05;;;-2.00;99.90;;;;;;5092770;28;20048;-75
2023/01/23 08:26:14;;;;;;;42.83;17.50;;;-2.00;99.90;;;;;;5090916;28;20080;-77
2023/01/23 08:28:43;;;;;;;40.55;17.70;;;-1.90;99.90;;;;;;5097059;28;20066;-76
2023/01/23 08:31:13;;;;;;;47.92;19.33;;;-1.90;99.90;;;;;;5111300;28;20365;-77
2023/01/23 08:33:41;;;;;;;45.22;17.67;;;-1.90;99.90;;;;;;5109281;27;20058;-74
2023/01/23 08:36:12;;;;;;;41.72;16.92;;;-2.00;99.90;;;;;;5110490;27;20120;-76
2023/01/23 08:38:40;;;;;;;41.53;16.70;;;-2.00;99.90;;;;;;5098468;28;20048;-75
2023/01/23 08:41:10;;;;;;;44.15;17.13;;;-1.90;99.90;;;;;;5109963;28;20503;-71
2023/01/23 08:43:40;;;;;;;45.08;17.58;;;-1.90;99.90;;;;;;5107913;28;20415;-71
2023/01/23 08:46:09;;;;;;;42.17;17.60;;;-1.80;99.90;;;;;;5095340;28;20080;-72
2023/01/23 08:48:38;;;;;;;53.08;19.27;;;-1.80;99.90;;;;;;5107745;28;20050;-73
2023/01/23 08:51:09;;;;;;;45.00;18.58;;;-1.80;99.90;;;;;;5101382;28;20056;-73
2023/01/23 08:53:37;;;;;;;48.25;19.98;;;-1.80;99.90;;;;;;5110264;28;20138;-70
2023/01/23 08:56:07;;;;;;;46.28;19.20;;;-1.70;99.90;;;;;;5095476;28;20521;-71
2023/01/23 08:58:35;;;;;;;55.45;21.15;;;-1.70;99.90;;;;;;5107113;28;20486;-70
2023/01/23 09:01:03;;;;;;;51.97;20.40;;;-1.70;99.90;;;;;;5105487;28;20054;-71
2023/01/23 09:03:30;;;;;;;56.53;22.67;;;-1.70;99.90;;;;;;5098643;28;20056;-71
2023/01/23 09:06:02;;;;;;;55.70;24.85;;;-1.70;99.90;;;;;;5099990;28;20135;-71
2023/01/23 09:08:29;;;;;;;67.82;26.83;;;-1.60;99.90;;;;;;5104607;28;20051;-70
2023/01/23 09:11:01;;;;;;;56.33;24.63;;;-1.60;99.90;;;;;;5110893;28;20051;-71
2023/01/23 09:13:28;;;;;;;60.25;25.88;;;-1.60;99.90;;;;;;5122402;27;20051;-71
2023/01/23 09:15:56;;;;;;;63.75;25.77;;;-1.60;99.90;;;;;;5103487;27;20059;-70
2023/01/23 09:18:23;;;;;;;62.10;25.38;;;-1.60;99.90;;;;;;5089909;28;20052;-71
2023/01/23 09:20:51;;;;;;;80.45;29.42;;;-1.60;99.90;;;;;;5110311;28;20105;-72
2023/01/23 09:23:21;;;;;;;92.00;33.72;;;-1.50;99.90;;;;;;5109769;28;20082;-72
2023/01/23 09:25:48;;;;;;;90.18;32.10;;;-1.50;99.90;;;;;;5109465;27;20055;-71
2023/01/23 09:28:16;;;;;;;94.28;33.38;;;-1.50;99.90;;;;;;5109747;28;20583;-72
2023/01/23 09:30:43;;;;;;;95.78;34.55;;;-1.50;99.90;;;;;;5108547;28;20059;-71
2023/01/23 09:33:11;;;;;;;87.45;32.63;;;-1.50;99.90;;;;;;5089221;28;20480;-71
2023/01/23 09:35:38;;;;;;;93.38;33.83;;;-1.40;99.90;;;;;;5104684;28;20056;-70
2023/01/23 09:38:06;;;;;;;90.22;33.30;;;-1.50;99.90;;;;;;5102309;28;20136;-71
2023/01/23 09:40:38;;;;;;;80.50;31.02;;;-1.40;99.90;;;;;;5098923;28;20134;-70
2023/01/23 09:43:16;;;;;;;72.20;28.90;;;-1.40;99.90;;;;;;5099248;28;20104;-72
2023/01/23 09:45:53;;;;;;;64.68;26.85;;;-1.40;99.90;;;;;;5098261;28;20044;-73
2023/01/23 09:48:28;;;;;;;68.13;27.92;;;-1.40;99.90;;;;;;5104980;28;20435;-71
2023/01/23 09:51:01;;;;;;;76.28;30.00;;;-1.40;99.90;;;;;;5124478;27;20059;-71
2023/01/23 09:53:34;;;;;;;;;;;-1.30;99.90;;;;;;5105235;27;20067;-72
2023/01/23 09:56:14;;;;;;;78.90;30.48;;;-1.30;99.90;;;;;;5108081;28;20042;-71
2023/01/23 09:58:49;;;;;;;79.43;30.83;;;-1.30;99.90;;;;;;5107623;28;20054;-78
2023/01/23 10:01:16;;;;;;;75.63;29.02;;;-1.30;99.90;;;;;;5092762;28;20082;-71
2023/01/23 10:03:44;;;;;;;62.25;25.13;;;-1.30;99.90;;;;;;5074547;28;20062;-73
2023/01/23 10:06:23;;;;;;;65.32;26.30;;;-1.30;99.90;;;;;;5108861;28;20075;-71
2023/01/23 10:09:21;;;;;;;63.30;26.80;;;-1.30;99.90;;;;;;5094871;28;20109;-72
2023/01/23 10:12:04;;;;;;;57.25;24.55;;;-1.30;99.90;;;;;;5106159;28;20180;-71
2023/01/23 10:15:05;;;;;;;54.92;24.25;;;-1.30;99.90;;;;;;5109861;28;20059;-72
2023/01/23 10:17:43;;;;;;;61.40;23.90;;;-1.30;99.90;;;;;;5109455;28;20048;-72
2023/01/23 10:20:29;;;;;;;73.78;29.40;;;-1.30;99.90;;;;;;5107141;28;20677;-71
2023/01/23 10:23:05;;;;;;;61.97;25.88;;;-1.30;99.90;;;;;;5104303;28;20052;-71
2023/01/23 10:25:37;;;;;;;64.25;26.85;;;-1.30;99.90;;;;;;5113899;27;20051;-70
2023/01/23 10:28:21;;;;;;;71.68;29.17;;;-1.30;99.90;;;;;;5104929;28;20071;-72
2023/01/23 10:30:56;;;;;;;68.53;28.90;;;-1.30;99.90;;;;;;5108607;28;20127;-69
2023/01/23 10:33:37;;;;;;;64.57;24.77;;;-1.30;99.90;;;;;;5087031;28;20101;-70
2023/01/23 10:36:17;;;;;;;55.60;23.60;;;-1.30;99.90;;;;;;5109066;28;20065;-70
2023/01/23 10:38:51;;;;;;;49.22;21.77;;;-1.30;99.90;;;;;;5104724;28;20040;-70
2023/01/23 10:41:20;;;;;;;55.03;22.52;;;-1.20;99.90;;;;;;5106839;27;20097;-70
2023/01/23 10:43:52;;;;;;;54.67;23.67;;;-1.20;99.90;;;;;;5100015;27;20047;-70
2023/01/23 10:46:22;;;;;;;49.83;21.80;;;-1.20;99.90;;;;;;5097385;28;20126;-69
2023/01/23 10:48:51;;;;;;;46.75;21.75;;;-1.20;99.90;;;;;;5077398;28;20806;-72
2023/01/23 10:51:33;;;;;;;54.50;22.35;;;-1.20;99.90;;;;;;5093666;27;20051;-70
2023/01/23 10:54:18;;;;;;;48.47;22.77;;;-1.20;99.90;;;;;;5094125;28;20483;-68
2023/01/23 10:56:52;;;;;;;53.97;21.20;;;-1.20;99.90;;;;;;5096033;28;20078;-71
2023/01/23 10:59:23;;;;;;;;;;;-1.20;99.90;;;;;;5093189;28;20048;-70
2023/01/23 11:02:00;;;;;;;49.72;22.25;;;-1.20;99.90;;;;;;5088602;28;19924;-73
2023/01/23 11:04:30;;;;;;;58.20;22.95;;;-1.30;99.90;;;;;;5087998;28;20112;-73
2023/01/23 11:07:05;;;;;;;47.15;22.02;;;-1.30;99.90;;;;;;5099189;28;20048;-75
2023/01/23 11:09:33;;;;;;;50.67;21.25;;;-1.30;99.90;;;;;;5108459;28;20348;-77
2023/01/23 11:12:03;;;;;;;61.70;24.35;;;-1.30;99.90;;;;;;5107627;28;20055;-74
2023/01/23 11:14:32;;;;;;;54.78;22.00;;;-1.30;99.90;;;;;;5107750;28;20035;-75
2023/01/23 11:17:04;;;;;;;54.58;22.70;;;-1.20;99.90;;;;;;5113925;28;20054;-78
2023/01/23 11:19:33;;;;;;;47.60;21.58;;;-1.30;99.90;;;;;;5104287;28;20063;-76
2023/01/23 11:22:02;;;;;;;54.28;23.02;;;-1.30;99.90;;;;;;5097689;28;20092;-76
2023/01/23 11:24:37;;;;;;;51.00;21.08;;;-1.30;99.90;;;;;;5102761;28;20043;-78
2023/01/23 11:27:17;;;;;;;55.85;21.92;;;-1.30;99.90;;;;;;5074607;28;20048;-76
2023/01/23 11:30:03;;;;;;;54.92;21.50;;;-1.30;99.90;;;;;;5096801;28;20130;-78
2023/01/23 11:32:37;;;;;;;49.15;20.67;;;-1.30;99.90;;;;;;5100797;28;20048;-77
2023/01/23 11:35:15;;;;;;;56.05;22.88;;;-1.30;99.90;;;;;;5101383;28;20043;-77
2023/01/23 11:37:44;;;;;;;46.42;21.48;;;-1.40;99.90;;;;;;5091281;28;20048;-76
2023/01/23 11:40:15;;;;;;;48.45;21.63;;;-1.40;99.90;;;;;;5099575;28;20048;-76
2023/01/23 11:42:44;;;;;;;45.92;20.75;;;-1.40;99.90;;;;;;5104707;28;20137;-77
2023/01/23 11:45:35;;;;;;;44.20;20.08;;;-1.50;99.90;;;;;;5115617;27;20142;-77
2023/01/23 11:48:21;;;;;;;44.80;20.95;;;-1.50;99.90;;;;;;5120033;27;20515;-77
2023/01/23 11:50:50;;;;;;;45.25;18.77;;;-1.50;99.90;;;;;;5111941;28;20131;-79
2023/01/23 11:53:24;;;;;;;45.63;19.85;;;-1.60;99.90;;;;;;5109703;28;20040;-80
2023/01/23 11:56:36;;;;;;;39.92;18.00;;;-1.60;99.90;;;;;;5011057;28;20059;-77
2023/01/23 11:59:40;;;;;;;41.33;17.88;;;-1.60;99.90;;;;;;5097343;28;20048;-76
2023/01/23 12:02:42;;;;;;;39.72;18.02;;;-1.60;99.90;;;;;;5073629;28;20046;-79
2023/01/23 12:05:48;;;;;;;36.03;16.90;;;-1.50;99.90;;;;;;5091790;28;20052;-79
2023/01/23 12:08:26;;;;;;;37.97;17.95;;;-1.60;99.90;;;;;;5098234;27;20054;-76
2023/01/23 12:11:11;;;;;;;40.05;18.63;;;-1.60;99.90;;;;;;5108712;28;20496;-78
2023/01/23 12:13:58;;;;;;;42.17;18.02;;;-1.60;99.90;;;;;;5110405;28;20504;-74
2023/01/23 12:16:44;;;;;;;35.83;17.48;;;-1.60;99.90;;;;;;5089606;28;20125;-75
2023/01/23 12:19:27;;;;;;;40.08;16.60;;;-1.60;99.90;;;;;;5116326;27;20095;-74
2023/01/23 12:22:06;;;;;;;36.17;16.48;;;-1.70;99.90;;;;;;5120592;27;20059;-76
2023/01/23 12:24:57;;;;;;;42.95;17.20;;;-1.70;99.90;;;;;;5113290;27;20092;-75
2023/01/23 12:27:36;;;;;;;33.92;16.25;;;-1.70;99.90;;;;;;5099293;27;20096;-78
2023/01/23 12:30:33;;;;;;;34.00;17.02;;;-1.70;99.90;;;;;;5112894;27;20070;-78
2023/01/23 12:33:19;;;;;;;36.38;16.90;;;-1.70;99.90;;;;;;5089417;28;20055;-75
2023/01/23 12:36:01;;;;;;;39.08;17.67;;;-1.70;99.90;;;;;;5109785;28;20052;-76
2023/01/23 12:38:33;;;;;;;41.58;18.13;;;-1.60;99.90;;;;;;5109179;28;20142;-76
2023/01/23 12:41:14;;;;;;;40.05;17.05;;;-1.60;99.90;;;;;;5112096;27;20054;-77
2023/01/23 12:43:52;;;;;;;39.00;17.92;;;-1.60;99.90;;;;;;5103661;28;20153;-77
2023/01/23 12:46:25;;;;;;;37.13;16.85;;;-1.60;99.90;;;;;;5097407;28;20424;-77
2023/01/23 12:49:05;;;;;;;43.67;16.60;;;-1.60;99.90;;;;;;5109153;28;20167;-76
2023/01/23 12:51:37;;;;;;;39.55;16.52;;;-1.60;99.90;;;;;;5110727;28;20051;-75
2023/01/23 12:54:12;;;;;;;38.38;18.05;;;-1.60;99.90;;;;;;5109398;28;20048;-75
2023/01/23 12:56:41;;;;;;;39.15;18.30;;;-1.60;99.90;;;;;;5111109;28;21195;-76
2023/01/23 12:59:17;;;;;;;35.65;17.30;;;-1.60;99.90;;;;;;5097120;28;20040;-77
2023/01/23 13:02:01;;;;;;;38.38;17.95;;;-1.70;99.90;;;;;;5095454;28;20533;-77
2023/01/23 13:04:53;;;;;;;36.70;16.38;;;-1.70;99.90;;;;;;5110889;27;20052;-76
2023/01/23 13:07:41;;;;;;;42.63;18.90;;;-1.70;99.90;;;;;;5093713;28;20150;-75